sensor_id;sensor_type;location;lat;lon;timestamp;P1;durP1;ratioP1;P2;durP2;ratioP2
417;SDS011;49;48.530;9.200;2022-08-27T00:00:08;16.17;;;8.50;;
417;SDS011;49;48.530;9.200;2022-08-27T00:02:39;13.30;;;8.50;;
417;SDS011;49;48.530;9.200;2022-08-27T00:05:06;12.17;;;9.10;;
417;SDS011;49;48.530;9.200;2022-08-27T00:07:34;11.90;;;8.50;;
417;SDS011;49;48.530;9.200;2022-08-27T00:10:04;15.37;;;8.37;;
417;SDS011;49;48.530;9.200;2022-08-27T00:12:32;18.80;;;8.90;;
417;SDS011;49;48.530;9.200;2022-08-27T00:15:00;18.37;;;8.93;;
417;SDS011;49;48.530;9.200;2022-08-27T00:17:29;16.90;;;9.57;;
417;SDS011;49;48.530;9.200;2022-08-27T00:19:56;16.03;;;9.63;;
417;SDS011;49;48.530;9.200;2022-08-27T00:22:23;13.40;;;9.03;;
417;SDS011;49;48.530;9.200;2022-08-27T00:24:50;14.70;;;9.50;;
417;SDS011;49;48.530;9.200;2022-08-27T00:27:17;12.77;;;8.90;;
417;SDS011;49;48.530;9.200;2022-08-27T00:29:45;14.63;;;9.67;;
417;SDS011;49;48.530;9.200;2022-08-27T00:32:14;24.50;;;9.20;;
417;SDS011;49;48.530;9.200;2022-08-27T00:34:44;13.23;;;9.20;;
417;SDS011;49;48.530;9.200;2022-08-27T00:37:11;15.10;;;7.67;;
417;SDS011;49;48.530;9.200;2022-08-27T00:39:39;12.37;;;8.70;;
417;SDS011;49;48.530;9.200;2022-08-27T00:42:11;15.67;;;8.90;;
417;SDS011;49;48.530;9.200;2022-08-27T00:44:50;15.93;;;8.80;;
417;SDS011;49;48.530;9.200;2022-08-27T00:47:19;15.80;;;9.30;;
417;SDS011;49;48.530;9.200;2022-08-27T00:49:52;15.23;;;9.63;;
417;SDS011;49;48.530;9.200;2022-08-27T00:52:23;17.60;;;8.87;;
417;SDS011;49;48.530;9.200;2022-08-27T00:55:05;17.47;;;8.57;;
417;SDS011;49;48.530;9.200;2022-08-27T00:57:39;12.50;;;8.30;;
417;SDS011;49;48.530;9.200;2022-08-27T01:00:09;10.43;;;8.57;;
417;SDS011;49;48.530;9.200;2022-08-27T01:02:38;22.23;;;10.53;;
417;SDS011;49;48.530;9.200;2022-08-27T01:05:09;15.60;;;10.27;;
417;SDS011;49;48.530;9.200;2022-08-27T01:07:40;12.93;;;8.70;;
417;SDS011;49;48.530;9.200;2022-08-27T01:10:13;13.77;;;9.23;;
417;SDS011;49;48.530;9.200;2022-08-27T01:12:43;15.47;;;8.20;;
417;SDS011;49;48.530;9.200;2022-08-27T01:15:13;20.30;;;9.30;;
417;SDS011;49;48.530;9.200;2022-08-27T01:17:42;8.30;;;6.73;;
417;SDS011;49;48.530;9.200;2022-08-27T01:20:14;19.20;;;8.10;;
417;SDS011;49;48.530;9.200;2022-08-27T01:22:48;12.13;;;9.03;;
417;SDS011;49;48.530;9.200;2022-08-27T01:28:06;16.53;;;10.07;;
417;SDS011;49;48.530;9.200;2022-08-27T01:30:34;13.10;;;9.23;;
417;SDS011;49;48.530;9.200;2022-08-27T01:33:06;18.73;;;9.90;;
417;SDS011;49;48.530;9.200;2022-08-27T01:35:35;20.43;;;8.93;;
417;SDS011;49;48.530;9.200;2022-08-27T01:38:03;12.87;;;8.80;;
417;SDS011;49;48.530;9.200;2022-08-27T01:40:30;15.60;;;7.63;;
417;SDS011;49;48.530;9.200;2022-08-27T01:42:59;10.33;;;7.50;;
417;SDS011;49;48.530;9.200;2022-08-27T01:45:28;10.13;;;7.47;;
417;SDS011;49;48.530;9.200;2022-08-27T01:47:57;11.00;;;7.77;;
417;SDS011;49;48.530;9.200;2022-08-27T01:50:27;12.90;;;8.30;;
417;SDS011;49;48.530;9.200;2022-08-27T01:52:59;10.43;;;7.47;;
417;SDS011;49;48.530;9.200;2022-08-27T01:55:28;11.87;;;9.07;;
417;SDS011;49;48.530;9.200;2022-08-27T01:57:55;21.50;;;9.73;;
417;SDS011;49;48.530;9.200;2022-08-27T02:00:25;12.43;;;8.33;;
417;SDS011;49;48.530;9.200;2022-08-27T02:02:54;18.93;;;9.00;;
417;SDS011;49;48.530;9.200;2022-08-27T02:05:22;17.40;;;10.43;;
417;SDS011;49;48.530;9.200;2022-08-27T02:07:49;12.83;;;7.10;;
417;SDS011;49;48.530;9.200;2022-08-27T02:10:19;17.87;;;9.20;;
417;SDS011;49;48.530;9.200;2022-08-27T02:12:48;17.93;;;9.20;;
417;SDS011;49;48.530;9.200;2022-08-27T02:15:17;15.93;;;10.17;;
417;SDS011;49;48.530;9.200;2022-08-27T02:17:47;13.30;;;10.13;;
417;SDS011;49;48.530;9.200;2022-08-27T02:20:15;13.00;;;9.13;;
417;SDS011;49;48.530;9.200;2022-08-27T02:22:43;16.23;;;9.70;;
417;SDS011;49;48.530;9.200;2022-08-27T02:25:11;12.73;;;9.10;;
417;SDS011;49;48.530;9.200;2022-08-27T02:27:40;12.63;;;8.70;;
417;SDS011;49;48.530;9.200;2022-08-27T02:30:09;15.67;;;9.73;;
417;SDS011;49;48.530;9.200;2022-08-27T02:32:38;18.67;;;10.50;;
417;SDS011;49;48.530;9.200;2022-08-27T02:35:07;17.60;;;10.90;;
417;SDS011;49;48.530;9.200;2022-08-27T02:37:34;14.60;;;11.00;;
417;SDS011;49;48.530;9.200;2022-08-27T02:40:02;17.63;;;10.90;;
417;SDS011;49;48.530;9.200;2022-08-27T02:42:30;18.73;;;10.47;;
417;SDS011;49;48.530;9.200;2022-08-27T02:44:58;17.10;;;11.43;;
417;SDS011;49;48.530;9.200;2022-08-27T02:47:25;26.77;;;10.73;;
417;SDS011;49;48.530;9.200;2022-08-27T02:49:53;22.30;;;10.27;;
417;SDS011;49;48.530;9.200;2022-08-27T02:52:22;19.13;;;9.33;;
417;SDS011;49;48.530;9.200;2022-08-27T02:54:52;12.43;;;8.87;;
417;SDS011;49;48.530;9.200;2022-08-27T02:57:19;15.23;;;10.03;;
417;SDS011;49;48.530;9.200;2022-08-27T02:59:46;16.00;;;9.37;;
417;SDS011;49;48.530;9.200;2022-08-27T03:02:13;22.57;;;10.43;;
417;SDS011;49;48.530;9.200;2022-08-27T03:04:40;16.13;;;9.97;;
417;SDS011;49;48.530;9.200;2022-08-27T03:07:08;13.50;;;9.87;;
417;SDS011;49;48.530;9.200;2022-08-27T03:09:37;14.10;;;9.20;;
417;SDS011;49;48.530;9.200;2022-08-27T03:12:04;20.50;;;10.57;;
417;SDS011;49;48.530;9.200;2022-08-27T03:14:32;21.53;;;9.83;;
417;SDS011;49;48.530;9.200;2022-08-27T03:17:00;27.67;;;9.47;;
417;SDS011;49;48.530;9.200;2022-08-27T03:19:41;13.97;;;8.77;;
417;SDS011;49;48.530;9.200;2022-08-27T03:22:08;18.40;;;9.50;;
417;SDS011;49;48.530;9.200;2022-08-27T03:24:38;24.33;;;10.83;;
417;SDS011;49;48.530;9.200;2022-08-27T03:27:05;13.43;;;8.40;;
417;SDS011;49;48.530;9.200;2022-08-27T03:29:32;16.73;;;9.70;;
417;SDS011;49;48.530;9.200;2022-08-27T03:32:01;15.00;;;9.40;;
417;SDS011;49;48.530;9.200;2022-08-27T03:34:31;36.23;;;11.10;;
417;SDS011;49;48.530;9.200;2022-08-27T03:36:59;13.57;;;10.13;;
417;SDS011;49;48.530;9.200;2022-08-27T03:39:26;13.60;;;10.07;;
417;SDS011;49;48.530;9.200;2022-08-27T03:41:55;21.00;;;11.67;;
417;SDS011;49;48.530;9.200;2022-08-27T03:44:23;17.77;;;12.43;;
417;SDS011;49;48.530;9.200;2022-08-27T03:46:51;22.93;;;14.13;;
417;SDS011;49;48.530;9.200;2022-08-27T03:49:19;27.20;;;15.40;;
417;SDS011;49;48.530;9.200;2022-08-27T03:51:47;29.57;;;17.93;;
417;SDS011;49;48.530;9.200;2022-08-27T03:54:16;25.37;;;15.83;;
417;SDS011;49;48.530;9.200;2022-08-27T03:56:43;23.57;;;15.80;;
417;SDS011;49;48.530;9.200;2022-08-27T03:59:12;28.10;;;15.73;;
417;SDS011;49;48.530;9.200;2022-08-27T04:01:40;26.33;;;15.93;;
417;SDS011;49;48.530;9.200;2022-08-27T04:04:07;26.20;;;14.80;;
417;SDS011;49;48.530;9.200;2022-08-27T04:06:34;25.07;;;15.10;;
417;SDS011;49;48.530;9.200;2022-08-27T04:09:02;23.10;;;15.30;;
417;SDS011;49;48.530;9.200;2022-08-27T04:11:29;26.03;;;16.40;;
417;SDS011;49;48.530;9.200;2022-08-27T04:13:58;23.60;;;15.20;;
417;SDS011;49;48.530;9.200;2022-08-27T04:16:30;27.53;;;16.90;;
417;SDS011;49;48.530;9.200;2022-08-27T04:18:57;28.23;;;15.50;;
417;SDS011;49;48.530;9.200;2022-08-27T04:21:24;24.30;;;15.40;;
417;SDS011;49;48.530;9.200;2022-08-27T04:23:52;22.20;;;16.80;;
417;SDS011;49;48.530;9.200;2022-08-27T04:26:20;27.90;;;17.57;;
417;SDS011;49;48.530;9.200;2022-08-27T04:28:48;26.87;;;16.37;;
417;SDS011;49;48.530;9.200;2022-08-27T04:31:16;26.80;;;17.20;;
417;SDS011;49;48.530;9.200;2022-08-27T04:33:47;25.03;;;16.50;;
417;SDS011;49;48.530;9.200;2022-08-27T04:36:14;23.50;;;16.50;;
417;SDS011;49;48.530;9.200;2022-08-27T04:38:42;25.30;;;16.70;;
417;SDS011;49;48.530;9.200;2022-08-27T04:41:09;28.73;;;17.67;;
417;SDS011;49;48.530;9.200;2022-08-27T04:43:47;28.93;;;15.43;;
417;SDS011;49;48.530;9.200;2022-08-27T04:46:20;23.53;;;16.77;;
417;SDS011;49;48.530;9.200;2022-08-27T04:48:51;23.80;;;16.87;;
417;SDS011;49;48.530;9.200;2022-08-27T04:51:19;21.83;;;16.70;;
417;SDS011;49;48.530;9.200;2022-08-27T04:53:47;26.00;;;16.60;;
417;SDS011;49;48.530;9.200;2022-08-27T04:56:16;24.40;;;17.27;;
417;SDS011;49;48.530;9.200;2022-08-27T04:58:45;25.47;;;15.70;;
417;SDS011;49;48.530;9.200;2022-08-27T05:01:14;21.00;;;16.83;;
417;SDS011;49;48.530;9.200;2022-08-27T05:03:43;33.00;;;16.90;;
417;SDS011;49;48.530;9.200;2022-08-27T05:06:12;28.90;;;17.67;;
417;SDS011;49;48.530;9.200;2022-08-27T05:08:40;21.90;;;16.13;;
417;SDS011;49;48.530;9.200;2022-08-27T05:11:07;26.60;;;17.53;;
417;SDS011;49;48.530;9.200;2022-08-27T05:13:37;24.20;;;17.57;;
417;SDS011;49;48.530;9.200;2022-08-27T05:16:07;38.40;;;22.07;;
417;SDS011;49;48.530;9.200;2022-08-27T05:18:35;35.70;;;22.80;;
417;SDS011;49;48.530;9.200;2022-08-27T05:21:03;36.40;;;21.23;;
417;SDS011;49;48.530;9.200;2022-08-27T05:23:34;35.07;;;24.33;;
417;SDS011;49;48.530;9.200;2022-08-27T05:26:01;32.03;;;22.60;;
417;SDS011;49;48.530;9.200;2022-08-27T05:28:28;32.67;;;22.43;;
417;SDS011;49;48.530;9.200;2022-08-27T05:31:01;33.40;;;22.20;;
417;SDS011;49;48.530;9.200;2022-08-27T05:33:30;37.70;;;23.43;;
417;SDS011;49;48.530;9.200;2022-08-27T05:35:58;40.93;;;25.40;;
417;SDS011;49;48.530;9.200;2022-08-27T05:38:26;38.60;;;25.97;;
417;SDS011;49;48.530;9.200;2022-08-27T05:41:03;38.50;;;25.50;;
417;SDS011;49;48.530;9.200;2022-08-27T05:43:34;41.60;;;26.80;;
417;SDS011;49;48.530;9.200;2022-08-27T05:46:02;40.43;;;24.63;;
417;SDS011;49;48.530;9.200;2022-08-27T05:48:31;34.13;;;22.67;;
417;SDS011;49;48.530;9.200;2022-08-27T05:51:08;32.53;;;21.80;;
417;SDS011;49;48.530;9.200;2022-08-27T05:53:39;34.00;;;22.63;;
417;SDS011;49;48.530;9.200;2022-08-27T05:56:12;30.70;;;21.87;;
417;SDS011;49;48.530;9.200;2022-08-27T05:58:40;31.20;;;21.53;;
417;SDS011;49;48.530;9.200;2022-08-27T06:01:25;31.50;;;20.80;;
417;SDS011;49;48.530;9.200;2022-08-27T06:03:53;35.10;;;22.47;;
417;SDS011;49;48.530;9.200;2022-08-27T06:06:20;34.77;;;22.30;;
417;SDS011;49;48.530;9.200;2022-08-27T06:08:51;31.43;;;21.70;;
417;SDS011;49;48.530;9.200;2022-08-27T06:11:20;40.63;;;23.97;;
417;SDS011;49;48.530;9.200;2022-08-27T06:13:48;45.10;;;26.37;;
417;SDS011;49;48.530;9.200;2022-08-27T06:16:16;38.50;;;23.70;;
417;SDS011;49;48.530;9.200;2022-08-27T06:18:45;42.30;;;25.10;;
417;SDS011;49;48.530;9.200;2022-08-27T06:21:14;40.90;;;25.20;;
417;SDS011;49;48.530;9.200;2022-08-27T06:23:42;37.23;;;24.40;;
417;SDS011;49;48.530;9.200;2022-08-27T06:26:12;36.63;;;22.70;;
417;SDS011;49;48.530;9.200;2022-08-27T06:28:43;36.87;;;20.90;;
417;SDS011;49;48.530;9.200;2022-08-27T06:31:10;32.37;;;20.60;;
417;SDS011;49;48.530;9.200;2022-08-27T06:33:39;31.73;;;20.20;;
417;SDS011;49;48.530;9.200;2022-08-27T06:36:08;28.53;;;18.47;;
417;SDS011;49;48.530;9.200;2022-08-27T06:38:37;31.57;;;19.40;;
417;SDS011;49;48.530;9.200;2022-08-27T06:41:05;30.97;;;20.70;;
417;SDS011;49;48.530;9.200;2022-08-27T06:43:34;26.53;;;18.10;;
417;SDS011;49;48.530;9.200;2022-08-27T06:46:04;30.83;;;20.10;;
417;SDS011;49;48.530;9.200;2022-08-27T06:48:32;29.40;;;19.40;;
417;SDS011;49;48.530;9.200;2022-08-27T06:50:59;30.67;;;20.80;;
417;SDS011;49;48.530;9.200;2022-08-27T06:53:33;30.20;;;18.70;;
417;SDS011;49;48.530;9.200;2022-08-27T06:56:00;28.87;;;19.80;;
417;SDS011;49;48.530;9.200;2022-08-27T06:58:27;31.67;;;18.63;;
417;SDS011;49;48.530;9.200;2022-08-27T07:00:54;29.03;;;19.17;;
417;SDS011;49;48.530;9.200;2022-08-27T07:03:23;30.23;;;19.10;;
417;SDS011;49;48.530;9.200;2022-08-27T07:05:50;23.13;;;16.73;;
417;SDS011;49;48.530;9.200;2022-08-27T07:08:18;33.77;;;20.07;;
417;SDS011;49;48.530;9.200;2022-08-27T07:10:45;30.10;;;19.33;;
417;SDS011;49;48.530;9.200;2022-08-27T07:13:12;36.23;;;20.00;;
417;SDS011;49;48.530;9.200;2022-08-27T07:15:39;31.20;;;19.63;;
417;SDS011;49;48.530;9.200;2022-08-27T07:18:06;27.97;;;18.80;;
417;SDS011;49;48.530;9.200;2022-08-27T07:20:38;30.47;;;18.77;;
417;SDS011;49;48.530;9.200;2022-08-27T07:23:06;37.50;;;25.63;;
417;SDS011;49;48.530;9.200;2022-08-27T07:25:33;34.57;;;22.40;;
417;SDS011;49;48.530;9.200;2022-08-27T07:28:00;44.23;;;21.10;;
417;SDS011;49;48.530;9.200;2022-08-27T07:30:28;39.40;;;23.13;;
417;SDS011;49;48.530;9.200;2022-08-27T07:32:55;33.00;;;21.60;;
417;SDS011;49;48.530;9.200;2022-08-27T07:35:22;36.97;;;23.23;;
417;SDS011;49;48.530;9.200;2022-08-27T07:37:50;37.50;;;25.53;;
417;SDS011;49;48.530;9.200;2022-08-27T07:40:17;43.03;;;27.10;;
417;SDS011;49;48.530;9.200;2022-08-27T07:42:58;47.80;;;26.40;;
417;SDS011;49;48.530;9.200;2022-08-27T07:45:43;43.73;;;28.23;;
417;SDS011;49;48.530;9.200;2022-08-27T07:48:12;44.53;;;26.00;;
417;SDS011;49;48.530;9.200;2022-08-27T07:50:40;46.80;;;26.93;;
417;SDS011;49;48.530;9.200;2022-08-27T07:53:09;48.87;;;26.63;;
417;SDS011;49;48.530;9.200;2022-08-27T07:55:37;44.50;;;27.50;;
417;SDS011;49;48.530;9.200;2022-08-27T07:58:07;44.67;;;28.50;;
417;SDS011;49;48.530;9.200;2022-08-27T08:00:36;51.47;;;28.60;;
417;SDS011;49;48.530;9.200;2022-08-27T08:03:06;52.90;;;28.63;;
417;SDS011;49;48.530;9.200;2022-08-27T08:05:39;45.00;;;27.93;;
417;SDS011;49;48.530;9.200;2022-08-27T08:08:08;43.63;;;27.43;;
417;SDS011;49;48.530;9.200;2022-08-27T08:10:38;45.83;;;26.40;;
417;SDS011;49;48.530;9.200;2022-08-27T08:13:14;43.63;;;29.43;;
417;SDS011;49;48.530;9.200;2022-08-27T08:15:45;46.13;;;27.70;;
417;SDS011;49;48.530;9.200;2022-08-27T08:18:15;42.00;;;27.13;;
417;SDS011;49;48.530;9.200;2022-08-27T08:20:43;45.07;;;27.70;;
417;SDS011;49;48.530;9.200;2022-08-27T08:23:13;54.80;;;27.90;;
417;SDS011;49;48.530;9.200;2022-08-27T08:25:41;40.07;;;26.10;;
417;SDS011;49;48.530;9.200;2022-08-27T08:28:13;46.27;;;28.33;;
417;SDS011;49;48.530;9.200;2022-08-27T08:30:41;44.23;;;28.57;;
417;SDS011;49;48.530;9.200;2022-08-27T08:33:08;38.83;;;26.43;;
417;SDS011;49;48.530;9.200;2022-08-27T08:35:37;44.50;;;28.97;;
417;SDS011;49;48.530;9.200;2022-08-27T08:38:06;45.17;;;28.50;;
417;SDS011;49;48.530;9.200;2022-08-27T08:40:39;53.70;;;27.97;;
417;SDS011;49;48.530;9.200;2022-08-27T08:43:17;42.97;;;26.73;;
417;SDS011;49;48.530;9.200;2022-08-27T08:45:53;47.17;;;27.40;;
417;SDS011;49;48.530;9.200;2022-08-27T08:48:26;39.70;;;27.80;;
417;SDS011;49;48.530;9.200;2022-08-27T08:50:57;51.60;;;30.13;;
417;SDS011;49;48.530;9.200;2022-08-27T08:53:32;44.70;;;31.87;;
417;SDS011;49;48.530;9.200;2022-08-27T08:56:08;47.70;;;29.60;;
417;SDS011;49;48.530;9.200;2022-08-27T08:58:42;55.50;;;33.10;;
417;SDS011;49;48.530;9.200;2022-08-27T09:01:13;53.73;;;31.07;;
417;SDS011;49;48.530;9.200;2022-08-27T09:03:46;50.37;;;32.60;;
417;SDS011;49;48.530;9.200;2022-08-27T09:06:20;53.27;;;31.70;;
417;SDS011;49;48.530;9.200;2022-08-27T09:08:58;50.10;;;31.30;;
417;SDS011;49;48.530;9.200;2022-08-27T09:11:33;56.90;;;33.30;;
417;SDS011;49;48.530;9.200;2022-08-27T09:14:07;54.10;;;34.97;;
417;SDS011;49;48.530;9.200;2022-08-27T09:16:50;59.33;;;34.90;;
417;SDS011;49;48.530;9.200;2022-08-27T09:19:20;51.43;;;33.70;;
417;SDS011;49;48.530;9.200;2022-08-27T09:21:50;53.37;;;34.67;;
417;SDS011;49;48.530;9.200;2022-08-27T09:24:31;66.20;;;36.83;;
417;SDS011;49;48.530;9.200;2022-08-27T09:27:07;64.40;;;35.60;;
417;SDS011;49;48.530;9.200;2022-08-27T09:29:45;57.80;;;34.63;;
417;SDS011;49;48.530;9.200;2022-08-27T09:32:21;54.30;;;35.77;;
417;SDS011;49;48.530;9.200;2022-08-27T09:34:56;53.93;;;36.07;;
417;SDS011;49;48.530;9.200;2022-08-27T09:37:24;48.87;;;32.53;;
417;SDS011;49;48.530;9.200;2022-08-27T09:39:57;57.03;;;32.83;;
417;SDS011;49;48.530;9.200;2022-08-27T09:42:35;56.73;;;35.20;;
417;SDS011;49;48.530;9.200;2022-08-27T09:45:08;53.67;;;35.50;;
417;SDS011;49;48.530;9.200;2022-08-27T09:47:42;52.27;;;33.60;;
417;SDS011;49;48.530;9.200;2022-08-27T09:50:15;60.60;;;37.00;;
417;SDS011;49;48.530;9.200;2022-08-27T09:52:50;50.23;;;35.10;;
417;SDS011;49;48.530;9.200;2022-08-27T09:55:34;65.80;;;37.57;;
417;SDS011;49;48.530;9.200;2022-08-27T09:58:16;59.40;;;35.50;;
417;SDS011;49;48.530;9.200;2022-08-27T10:00:47;59.60;;;36.97;;
417;SDS011;49;48.530;9.200;2022-08-27T10:03:24;63.47;;;35.00;;
417;SDS011;49;48.530;9.200;2022-08-27T10:05:55;68.20;;;36.33;;
417;SDS011;49;48.530;9.200;2022-08-27T10:08:27;56.67;;;36.10;;
417;SDS011;49;48.530;9.200;2022-08-27T10:11:09;65.53;;;38.27;;
417;SDS011;49;48.530;9.200;2022-08-27T10:13:44;60.40;;;37.27;;
417;SDS011;49;48.530;9.200;2022-08-27T10:16:44;60.60;;;35.20;;
417;SDS011;49;48.530;9.200;2022-08-27T10:19:25;57.43;;;33.90;;
417;SDS011;49;48.530;9.200;2022-08-27T10:22:07;52.67;;;34.67;;
417;SDS011;49;48.530;9.200;2022-08-27T10:24:41;54.67;;;35.30;;
417;SDS011;49;48.530;9.200;2022-08-27T10:27:23;50.40;;;32.23;;
417;SDS011;49;48.530;9.200;2022-08-27T10:30:06;54.23;;;32.87;;
417;SDS011;49;48.530;9.200;2022-08-27T10:32:47;69.23;;;34.73;;
417;SDS011;49;48.530;9.200;2022-08-27T10:35:32;57.03;;;32.30;;
417;SDS011;49;48.530;9.200;2022-08-27T10:38:06;48.37;;;32.73;;
417;SDS011;49;48.530;9.200;2022-08-27T10:40:41;64.17;;;33.93;;
417;SDS011;49;48.530;9.200;2022-08-27T10:43:25;53.70;;;33.00;;
417;SDS011;49;48.530;9.200;2022-08-27T10:46:25;53.17;;;35.40;;
417;SDS011;49;48.530;9.200;2022-08-27T10:49:11;51.97;;;34.67;;
417;SDS011;49;48.530;9.200;2022-08-27T10:51:44;59.73;;;36.73;;
417;SDS011;49;48.530;9.200;2022-08-27T10:54:30;64.57;;;35.10;;
417;SDS011;49;48.530;9.200;2022-08-27T10:57:06;54.13;;;32.30;;
417;SDS011;49;48.530;9.200;2022-08-27T10:59:44;70.27;;;36.93;;
417;SDS011;49;48.530;9.200;2022-08-27T11:02:27;74.73;;;41.63;;
417;SDS011;49;48.530;9.200;2022-08-27T11:05:01;76.57;;;44.53;;
417;SDS011;49;48.530;9.200;2022-08-27T11:07:33;69.57;;;43.27;;
417;SDS011;49;48.530;9.200;2022-08-27T11:10:04;74.27;;;45.20;;
417;SDS011;49;48.530;9.200;2022-08-27T11:12:43;81.73;;;48.07;;
417;SDS011;49;48.530;9.200;2022-08-27T11:15:15;74.77;;;44.10;;
417;SDS011;49;48.530;9.200;2022-08-27T11:17:55;73.37;;;43.10;;
417;SDS011;49;48.530;9.200;2022-08-27T11:20:33;73.90;;;45.03;;
417;SDS011;49;48.530;9.200;2022-08-27T11:23:09;69.43;;;43.47;;
417;SDS011;49;48.530;9.200;2022-08-27T11:25:46;80.40;;;44.60;;
417;SDS011;49;48.530;9.200;2022-08-27T11:28:18;66.70;;;40.90;;
417;SDS011;49;48.530;9.200;2022-08-27T11:30:54;67.00;;;41.10;;
417;SDS011;49;48.530;9.200;2022-08-27T11:33:31;68.77;;;40.90;;
417;SDS011;49;48.530;9.200;2022-08-27T11:36:08;67.53;;;39.90;;
417;SDS011;49;48.530;9.200;2022-08-27T11:39:02;69.27;;;42.90;;
417;SDS011;49;48.530;9.200;2022-08-27T11:44:27;80.03;;;44.20;;
417;SDS011;49;48.530;9.200;2022-08-27T11:46:55;69.27;;;42.77;;
417;SDS011;49;48.530;9.200;2022-08-27T11:49:39;65.33;;;42.20;;
417;SDS011;49;48.530;9.200;2022-08-27T11:52:10;67.00;;;44.00;;
417;SDS011;49;48.530;9.200;2022-08-27T11:54:43;64.80;;;38.37;;
417;SDS011;49;48.530;9.200;2022-08-27T11:57:13;56.20;;;36.20;;
417;SDS011;49;48.530;9.200;2022-08-27T11:59:41;49.23;;;33.87;;
417;SDS011;49;48.530;9.200;2022-08-27T12:02:20;53.60;;;34.70;;
417;SDS011;49;48.530;9.200;2022-08-27T12:04:52;51.63;;;34.23;;
417;SDS011;49;48.530;9.200;2022-08-27T12:07:45;50.50;;;32.00;;
417;SDS011;49;48.530;9.200;2022-08-27T12:10:23;51.17;;;32.67;;
417;SDS011;49;48.530;9.200;2022-08-27T12:13:04;39.20;;;26.87;;
417;SDS011;49;48.530;9.200;2022-08-27T12:15:47;34.07;;;24.47;;
417;SDS011;49;48.530;9.200;2022-08-27T12:18:34;29.87;;;21.03;;
417;SDS011;49;48.530;9.200;2022-08-27T12:21:24;32.77;;;24.10;;
417;SDS011;49;48.530;9.200;2022-08-27T12:24:06;32.37;;;19.80;;
417;SDS011;49;48.530;9.200;2022-08-27T12:26:40;23.37;;;17.97;;
417;SDS011;49;48.530;9.200;2022-08-27T12:29:27;29.27;;;17.93;;
417;SDS011;49;48.530;9.200;2022-08-27T12:32:08;26.37;;;17.53;;
417;SDS011;49;48.530;9.200;2022-08-27T12:34:51;18.67;;;13.97;;
417;SDS011;49;48.530;9.200;2022-08-27T12:37:27;21.40;;;14.30;;
417;SDS011;49;48.530;9.200;2022-08-27T12:39:58;21.13;;;13.90;;
417;SDS011;49;48.530;9.200;2022-08-27T12:42:29;18.90;;;14.73;;
417;SDS011;49;48.530;9.200;2022-08-27T12:44:57;19.83;;;14.63;;
417;SDS011;49;48.530;9.200;2022-08-27T12:47:25;20.93;;;14.60;;
417;SDS011;49;48.530;9.200;2022-08-27T12:49:55;26.93;;;13.90;;
417;SDS011;49;48.530;9.200;2022-08-27T12:52:35;21.33;;;14.10;;
417;SDS011;49;48.530;9.200;2022-08-27T12:55:34;20.83;;;12.50;;
417;SDS011;49;48.530;9.200;2022-08-27T12:58:10;19.87;;;13.80;;
417;SDS011;49;48.530;9.200;2022-08-27T13:00:49;21.73;;;14.33;;
417;SDS011;49;48.530;9.200;2022-08-27T13:03:35;17.27;;;12.50;;
417;SDS011;49;48.530;9.200;2022-08-27T13:06:12;19.47;;;12.53;;
417;SDS011;49;48.530;9.200;2022-08-27T13:08:44;20.80;;;15.03;;
417;SDS011;49;48.530;9.200;2022-08-27T13:11:15;19.63;;;14.40;;
417;SDS011;49;48.530;9.200;2022-08-27T13:13:46;19.60;;;12.90;;
417;SDS011;49;48.530;9.200;2022-08-27T13:16:15;16.77;;;11.73;;
417;SDS011;49;48.530;9.200;2022-08-27T13:18:45;15.43;;;12.47;;
417;SDS011;49;48.530;9.200;2022-08-27T13:21:15;19.53;;;14.00;;
417;SDS011;49;48.530;9.200;2022-08-27T13:23:51;14.17;;;10.77;;
417;SDS011;49;48.530;9.200;2022-08-27T13:26:20;20.20;;;12.30;;
417;SDS011;49;48.530;9.200;2022-08-27T13:28:48;17.63;;;13.43;;
417;SDS011;49;48.530;9.200;2022-08-27T13:31:17;20.73;;;12.97;;
417;SDS011;49;48.530;9.200;2022-08-27T13:33:46;16.20;;;12.40;;
417;SDS011;49;48.530;9.200;2022-08-27T13:36:24;18.37;;;13.37;;
417;SDS011;49;48.530;9.200;2022-08-27T13:38:54;16.63;;;12.10;;
417;SDS011;49;48.530;9.200;2022-08-27T13:41:26;18.80;;;14.00;;
417;SDS011;49;48.530;9.200;2022-08-27T13:44:03;14.07;;;11.50;;
417;SDS011;49;48.530;9.200;2022-08-27T13:46:32;13.70;;;11.53;;
417;SDS011;49;48.530;9.200;2022-08-27T13:49:12;15.80;;;11.43;;
417;SDS011;49;48.530;9.200;2022-08-27T13:51:42;15.27;;;11.70;;
417;SDS011;49;48.530;9.200;2022-08-27T13:54:13;15.80;;;12.70;;
417;SDS011;49;48.530;9.200;2022-08-27T13:56:56;19.23;;;12.70;;
417;SDS011;49;48.530;9.200;2022-08-27T13:59:28;13.97;;;9.97;;
417;SDS011;49;48.530;9.200;2022-08-27T14:01:57;16.23;;;11.20;;
417;SDS011;49;48.530;9.200;2022-08-27T14:04:32;12.67;;;10.40;;
417;SDS011;49;48.530;9.200;2022-08-27T14:07:06;13.83;;;10.43;;
417;SDS011;49;48.530;9.200;2022-08-27T14:09:42;11.57;;;9.10;;
417;SDS011;49;48.530;9.200;2022-08-27T14:12:18;15.43;;;8.50;;
417;SDS011;49;48.530;9.200;2022-08-27T14:14:52;9.63;;;6.87;;
417;SDS011;49;48.530;9.200;2022-08-27T14:17:21;30.80;;;8.67;;
417;SDS011;49;48.530;9.200;2022-08-27T14:19:49;11.27;;;7.07;;
417;SDS011;49;48.530;9.200;2022-08-27T14:22:18;35.77;;;10.43;;
417;SDS011;49;48.530;9.200;2022-08-27T14:24:47;39.73;;;8.47;;
417;SDS011;49;48.530;9.200;2022-08-27T14:27:16;8.80;;;6.73;;
417;SDS011;49;48.530;9.200;2022-08-27T14:29:45;46.93;;;10.00;;
417;SDS011;49;48.530;9.200;2022-08-27T14:32:15;11.20;;;9.20;;
417;SDS011;49;48.530;9.200;2022-08-27T14:34:45;28.00;;;8.43;;
417;SDS011;49;48.530;9.200;2022-08-27T14:37:15;10.20;;;7.30;;
417;SDS011;49;48.530;9.200;2022-08-27T14:39:42;15.17;;;7.50;;
417;SDS011;49;48.530;9.200;2022-08-27T14:42:14;17.07;;;7.37;;
417;SDS011;49;48.530;9.200;2022-08-27T14:44:44;19.07;;;8.10;;
417;SDS011;49;48.530;9.200;2022-08-27T14:47:14;29.07;;;7.40;;
417;SDS011;49;48.530;9.200;2022-08-27T14:49:45;7.20;;;6.77;;
417;SDS011;49;48.530;9.200;2022-08-27T14:52:18;33.50;;;8.77;;
417;SDS011;49;48.530;9.200;2022-08-27T14:54:50;11.87;;;7.07;;
417;SDS011;49;48.530;9.200;2022-08-27T14:57:20;10.93;;;7.87;;
417;SDS011;49;48.530;9.200;2022-08-27T14:59:47;9.23;;;7.47;;
417;SDS011;49;48.530;9.200;2022-08-27T15:02:18;14.67;;;7.40;;
417;SDS011;49;48.530;9.200;2022-08-27T15:04:50;71.83;;;10.77;;
417;SDS011;49;48.530;9.200;2022-08-27T15:07:20;15.30;;;7.83;;
417;SDS011;49;48.530;9.200;2022-08-27T15:09:52;14.67;;;7.00;;
417;SDS011;49;48.530;9.200;2022-08-27T15:12:20;18.00;;;7.43;;
417;SDS011;49;48.530;9.200;2022-08-27T15:14:48;9.70;;;6.97;;
417;SDS011;49;48.530;9.200;2022-08-27T15:17:15;11.90;;;7.87;;
417;SDS011;49;48.530;9.200;2022-08-27T15:19:45;8.53;;;6.73;;
417;SDS011;49;48.530;9.200;2022-08-27T15:22:14;13.47;;;6.53;;
417;SDS011;49;48.530;9.200;2022-08-27T15:24:44;8.40;;;6.93;;
417;SDS011;49;48.530;9.200;2022-08-27T15:27:18;8.60;;;7.10;;
417;SDS011;49;48.530;9.200;2022-08-27T15:29:49;9.97;;;7.23;;
417;SDS011;49;48.530;9.200;2022-08-27T15:32:22;9.53;;;7.40;;
417;SDS011;49;48.530;9.200;2022-08-27T15:34:52;8.93;;;6.93;;
417;SDS011;49;48.530;9.200;2022-08-27T15:37:23;10.80;;;7.70;;
417;SDS011;49;48.530;9.200;2022-08-27T15:39:54;19.50;;;17.03;;
417;SDS011;49;48.530;9.200;2022-08-27T15:42:25;10.20;;;7.80;;
417;SDS011;49;48.530;9.200;2022-08-27T15:44:53;9.70;;;7.73;;
417;SDS011;49;48.530;9.200;2022-08-27T15:47:22;11.70;;;9.60;;
417;SDS011;49;48.530;9.200;2022-08-27T15:49:49;10.53;;;8.60;;
417;SDS011;49;48.530;9.200;2022-08-27T15:52:17;10.57;;;7.63;;
417;SDS011;49;48.530;9.200;2022-08-27T15:54:46;11.30;;;7.70;;
417;SDS011;49;48.530;9.200;2022-08-27T15:57:16;11.60;;;8.40;;
417;SDS011;49;48.530;9.200;2022-08-27T15:59:45;21.93;;;9.10;;
417;SDS011;49;48.530;9.200;2022-08-27T16:02:16;12.90;;;9.07;;
417;SDS011;49;48.530;9.200;2022-08-27T16:04:46;11.90;;;8.90;;
417;SDS011;49;48.530;9.200;2022-08-27T16:07:13;10.80;;;7.50;;